メインページ
METAR-TAF:

METAR-TAF

空港 :

Adirondack Regional Airport

Saranac Lake, ニューヨーク, アメリカ合衆国

緯度: 44-23-35N, 経度: 074-12-10W, 海抜: 507m

現時点の気象観測

当レポートは36分前の19:51(UTC)に作成
変向風 5kt
気温 -8°C
湿度 73%
気圧 1024 hPa
視程: 9.7km
高度2200ftの千切れ雲あり
高度2700ftの曇り
小雪

METAR: KSLK 071951Z AUTO VRB05KT 6SM -SN BKN022 OVC027 M08/M12 A3025 RMK AO2 SLP276 P0000 T10781117

時間: 15:27 (20:27 UTC)

予報

当レポートは2時間51分前の17:36(UTC)に作成
予報は07日の 18時(UTC)から 08日の 18時(UTC)まで有効
西の風 5kt
視程: 9.7km
高度2200ftの曇り
小雪, 靄
07日の 18時(UTC)から 07日の 20時(UTC)まで一時的に
視程: 3.2km
高度1500ftの曇り
小雪
07日の 2000時(UTC)から
変向風 4kt
視程: 10km
高度2500ftの雲は散在している
高度3500ftの千切れ雲あり
08日の 0100時(UTC)から
変向風 4kt
視程: 10km
高度10000ftの雲はほとんどない
08日の 1500時(UTC)から
の風 8kt、最大16ktの突風を伴う
視程: 10km
高度6000ftの曇り

TAF: KSLK 071736Z 0718/0818 28005KT 6SM -SN BR OVC022 TEMPO 0718/0720 2SM -SN OVC015 FM072000 VRB04KT P6SM SCT025 BKN035 FM080100 VRB04KT P6SM FEW100 FM081500 19008G16KT P6SM OVC060 WS020/23040KT

4,000以上の空港の気象観測と天気予報(METAR報とTAF報)

利用可能な観測所は地図上に黄色い丸と赤い丸で示す。

丸の上にカーソルを重ねると観測所名を参照できる。

次にクリックすると気象観測と天気予報を参照できる。

マップの切り替え:黒色「×」印の緑ボタンをクリックして拡大、「-」印の緑ボタンをクリックして縮小、緑色の三角印をクリックして隣りの地図に切り替え


METAR-TAF: